Time;durP1;ratioP1;P1;durP2;ratioP2;P2;SDS_P1;SDS_P2;PMS_P1;PMS_P2;Temp;Humidity;BMP_temperature;BMP_pressure;BME280_temperature;BME280_humidity;BME280_pressure;Samples;Min_cycle;Max_cycle;Signal;HPM_P1;HPM_P2
2023/01/05 00:00:33;;;;;;;;;;;;;;;12.60;50.88;99700.41;5055595;28;19924;-85
2023/01/05 00:02:59;;;;;;;;;;;;;;;12.61;51.16;99698.59;5037280;28;19921;-86
2023/01/05 00:05:24;;;;;;;;;;;;;;;12.58;50.93;99693.59;5055934;28;20368;-85
2023/01/05 00:07:49;;;;;;;;;;;;;;;12.58;51.06;99690.97;5037638;28;19967;-84
2023/01/05 00:23:56;;;;;;;;;;;;;;;12.54;51.18;99692.97;5040298;28;19939;-85
2023/01/05 00:26:21;;;;;;;;;;;;;;;12.55;51.50;99689.38;5055378;28;20356;-84
2023/01/05 00:28:47;;;;;;;;;;;;;;;12.54;51.17;99679.00;5037272;28;19917;-84
2023/01/05 00:31:12;;;;;;;;;;;;;;;12.53;51.32;99686.03;5055475;28;19917;-83
2023/01/05 00:33:37;;;;;;;;;;;;;;;12.53;51.17;99677.34;5037269;28;19931;-84
2023/01/05 00:36:07;;;;;;;;;;;;;;;12.52;51.36;99678.28;5037784;28;20387;-83
2023/01/05 00:38:32;;;;;;;;;;;;;;;12.49;51.10;99674.94;5036497;28;19921;-83
2023/01/05 00:40:58;;;;;;;;;;;;;;;12.51;51.20;99673.97;5054518;28;19931;-82
2023/01/05 00:43:23;;;;;;;;;;;;;;;12.50;51.32;99665.31;5036459;28;19916;-81
2023/01/05 00:45:48;;;;;;;;;;;;;;;12.49;51.38;99667.09;5054451;28;20339;-82
2023/01/05 00:48:13;;;;;;;;;;;;;;;12.48;51.45;99668.03;5036964;28;19917;-82
2023/01/05 00:50:39;;;;;;;;;;;;;;;12.49;51.62;99668.84;5020286;28;19921;-84
2023/01/05 00:53:04;;;;;;;;;;;;;;;12.48;51.50;99673.25;5054830;28;19917;-82
2023/01/05 00:55:29;;;;;;;;;;;;;;;12.48;51.52;99665.41;5035147;28;19917;-82
2023/01/05 00:57:55;;;;;;;;;;;;;;;12.47;51.51;99663.72;5054475;28;19924;-80
2023/01/05 01:00:20;;;;;;;;;;;;;;;12.47;51.71;99662.91;5054581;28;20364;-82
2023/01/05 01:02:45;;;;;;;;;;;;;;;12.46;51.62;99658.59;5019973;28;19931;-81
2023/01/05 01:05:11;;;;;;;;;;;;;;;12.45;51.49;99654.31;5054558;28;19917;-81
2023/01/05 01:07:36;;;;;;;;;;;;;;;12.44;51.65;99657.88;5036653;28;20276;-82
2023/01/05 01:10:01;;;;;;;;;;;;;;;12.43;51.97;99651.81;5036279;28;19968;-82
2023/01/05 01:12:27;;;;;;;;;;;;;;;12.43;51.84;99650.94;5019884;28;19947;-82
2023/01/05 01:14:52;;;;;;;;;;;;;;;12.42;51.66;99657.16;5036307;28;19990;-81
2023/01/05 01:17:17;;;;;;;;;;;;;;;12.41;52.05;99658.06;5036197;28;19924;-81
2023/01/05 01:19:44;;;;;;;;;;;;;;;12.41;51.80;99645.84;5035859;28;20004;-81
2023/01/05 01:22:10;;;;;;;;;;;;;;;12.42;52.09;99646.66;5036526;28;19921;-82
2023/01/05 01:24:35;;;;;;;;;;;;;;;12.41;51.83;99645.00;5053921;28;19923;-82
2023/01/05 01:27:00;;;;;;;;;;;;;;;12.40;51.94;99638.91;5036122;28;19916;-83
2023/01/05 01:29:26;;;;;;;;;;;;;;;12.39;51.82;99636.41;5036082;28;19923;-82
2023/01/05 01:31:51;;;;;;;;;;;;;;;12.38;51.94;99634.72;5053991;28;19960;-83
2023/01/05 01:34:16;;;;;;;;;;;;;;;12.38;51.96;99622.50;5035583;28;19966;-82
2023/01/05 01:36:42;;;;;;;;;;;;;;;12.38;51.95;99626.88;5035870;28;19923;-83
2023/01/05 01:39:07;;;;;;;;;;;;;;;12.37;52.29;99623.41;5035641;28;19944;-83
2023/01/05 01:41:32;;;;;;;;;;;;;;;12.36;52.08;99615.69;5018908;28;20018;-83
2023/01/05 01:43:58;;;;;;;;;;;;;;;12.36;52.04;99615.69;5018959;28;19923;-84
2023/01/05 01:46:24;;;;;;;;;;;;;;;12.34;52.26;99609.72;5035370;28;19999;-83
2023/01/05 01:48:53;;;;;;;;;;;;;;;12.34;51.97;99607.09;5036063;28;20007;-84
2023/01/05 01:51:23;;;;;;;;;;;;;;;12.34;51.95;99594.00;5018622;28;20457;-82
2023/01/05 01:53:50;;;;;;;;;;;;;;;12.33;51.98;99590.53;5018662;28;20346;-82
2023/01/05 01:56:16;;;;;;;;;;;;;;;12.31;52.36;99600.28;5035743;28;19928;-81
2023/01/05 01:58:42;;;;;;;;;;;;;;;12.31;52.16;99587.19;5018694;28;19978;-83
2023/01/05 02:01:07;;;;;;;;;;;;;;;12.30;52.11;99586.38;5035432;28;19916;-83
2023/01/05 02:03:32;;;;;;;;;;;;;;;12.30;52.08;99575.03;5035766;28;19917;-84
2023/01/05 02:05:57;;;;;;;;;;;;;;;12.29;52.02;99579.44;5034776;28;19917;-84
2023/01/05 02:08:32;;;;;;;;;;;;;;;12.29;52.03;99568.97;5018822;28;20315;-84
2023/01/05 02:11:16;;;;;;;;;;;;;;;12.28;52.08;99569.91;5036673;28;19917;-83
2023/01/05 02:13:55;;;;;;;;;;;;;;;12.28;52.47;99569.09;5035291;28;19955;-83
2023/01/05 02:16:32;;;;;;;;;;;;;;;12.26;52.14;99558.72;5035630;28;19968;-84
2023/01/05 02:19:17;;;;;;;;;;;;;;;12.26;52.08;99566.56;5052925;28;20004;-84
2023/01/05 02:21:42;;;;;;;;;;;;;;;12.27;52.06;99570.00;5035661;28;19920;-82
2023/01/05 02:24:07;;;;;;;;;;;;;;;12.27;52.33;99570.00;5035503;28;19917;-83
2023/01/05 02:26:51;;;;;;;;;;;;;;;12.25;52.39;99564.06;5035323;28;20481;-84
2023/01/05 02:29:22;;;;;;;;;;;;;;;12.24;52.49;99562.38;5052839;28;19917;-83
2023/01/05 02:31:52;;;;;;;;;;;;;;;12.22;52.26;99567.72;5052786;28;19974;-82
2023/01/05 02:34:20;;;;;;;;;;;;;;;12.22;52.48;99566.91;5034928;28;20001;-83
2023/01/05 02:36:57;;;;;;;;;;;;;;;12.21;52.28;99560.81;5018426;28;20406;-83
2023/01/05 02:39:23;;;;;;;;;;;;;;;12.21;52.43;99552.16;5052567;28;20326;-82
2023/01/05 02:41:52;;;;;;;;;;;;;;;12.20;52.56;99553.91;5052642;28;19927;-82
2023/01/05 02:44:18;;;;;;;;;;;;;;;12.20;52.69;99550.47;5034862;28;19916;-82
2023/01/05 02:46:44;;;;;;;;;;;;;;;12.19;52.36;99551.41;5018196;28;19921;-82
2023/01/05 02:49:09;;;;;;;;;;;;;;;12.18;52.65;99544.50;5034883;28;19921;-83
2023/01/05 02:51:35;;;;;;;;;;;;;;;12.17;52.37;99540.22;5052723;28;19923;-82
2023/01/05 02:54:02;;;;;;;;;;;;;;;12.17;52.78;99543.66;5034929;28;19967;-82
2023/01/05 02:56:30;;;;;;;;;;;;;;;12.17;52.69;99535.81;5052936;28;19942;-81
2023/01/05 02:59:07;;;;;;;;;;;;;;;12.16;52.86;99530.66;5034623;28;19986;-85
2023/01/05 03:01:33;;;;;;;;;;;;;;;12.15;52.62;99540.31;5018168;28;19923;-85
2023/01/05 03:03:59;;;;;;;;;;;;;;;12.15;52.89;99537.69;5018171;28;19923;-84
2023/01/05 03:06:27;;;;;;;;;;;;;;;12.11;52.65;99529.22;5018048;28;19916;-84
2023/01/05 03:08:59;;;;;;;;;;;;;;;12.13;53.04;99526.50;5052379;28;20368;-85
2023/01/05 03:14:34;;;;;;;;;;;;;;;12.11;53.07;99518.75;5052303;28;19925;-86
2023/01/05 03:16:59;;;;;;;;;;;;;;;12.11;52.99;99512.66;5017989;28;20027;-85
2023/01/05 03:19:38;;;;;;;;;;;;;;;12.09;52.90;99512.78;5021767;28;20414;-85
2023/01/05 03:35:58;;;;;;;;;;;;;;;12.05;53.21;99495.63;5021747;28;19928;-84
2023/01/05 03:38:24;;;;;;;;;;;;;;;12.04;53.45;99495.75;5018407;28;20015;-85
2023/01/05 03:40:52;;;;;;;;;;;;;;;12.04;53.13;99491.34;5034803;28;19932;-85
2023/01/05 03:43:18;;;;;;;;;;;;;;;12.02;53.48;99488.00;5018386;28;19918;-86
2023/01/05 03:45:44;;;;;;;;;;;;;;;12.01;53.42;99475.84;5001925;28;20016;-87
2023/01/05 03:48:09;;;;;;;;;;;;;;;12.02;53.14;99488.00;5002351;28;20012;-87
2023/01/05 03:50:35;;;;;;;;;;;;;;;12.02;53.23;99477.53;5018455;28;20362;-83
2023/01/05 03:53:00;;;;;;;;;;;;;;;12.01;53.48;99473.25;5035727;28;20416;-83
2023/01/05 03:55:25;;;;;;;;;;;;;;;12.01;53.59;99473.25;5036024;28;19917;-83
2023/01/05 03:57:51;;;;;;;;;;;;;;;12.01;53.50;99472.41;5017845;28;20384;-83
2023/01/05 04:00:16;;;;;;;;;;;;;;;12.00;53.51;99473.34;5017629;28;19924;-83
2023/01/05 04:02:41;;;;;;;;;;;;;;;12.00;53.21;99468.13;5017882;28;19924;-83
2023/01/05 04:05:07;;;;;;;;;;;;;;;11.99;53.61;99450.75;5018299;28;20004;-83
2023/01/05 04:07:32;;;;;;;;;;;;;;;11.98;53.67;99452.53;5018111;28;20350;-83
2023/01/05 04:09:57;;;;;;;;;;;;;;;11.97;53.22;99445.63;5035753;28;20445;-83
2023/01/05 04:12:23;;;;;;;;;;;;;;;11.97;53.65;99445.63;5017873;28;20432;-84
2023/01/05 04:14:48;;;;;;;;;;;;;;;11.96;53.68;99433.47;5017789;28;19917;-83
2023/01/05 04:17:13;;;;;;;;;;;;;;;11.95;53.64;99437.03;5017824;28;19917;-85
2023/01/05 04:19:39;;;;;;;;;;;;;;;11.92;53.63;99443.34;5017262;28;19921;-84
2023/01/05 04:22:04;;;;;;;;;;;;;;;11.91;53.58;99444.25;5017628;28;19917;-83
2023/01/05 04:24:29;;;;;;;;;;;;;;;11.91;53.41;99444.25;5032955;28;19921;-83
2023/01/05 04:26:55;;;;;;;;;;;;;;;11.90;53.37;99450.41;5017655;28;19956;-82
2023/01/05 04:29:20;;;;;;;;;;;;;;;11.90;53.72;99452.19;5035140;28;19921;-82
2023/01/05 04:31:45;;;;;;;;;;;;;;;11.87;53.70;99444.56;5017969;28;20375;-81
2023/01/05 04:34:10;;;;;;;;;;;;;;;11.86;53.69;99454.19;5017482;28;20012;-82
2023/01/05 04:36:36;;;;;;;;;;;;;;;11.85;53.58;99456.94;5016591;28;19960;-81
2023/01/05 04:39:01;;;;;;;;;;;;;;;11.83;53.57;99454.41;5017092;28;19921;-81
2023/01/05 04:41:26;;;;;;;;;;;;;;;11.82;53.77;99454.53;5017196;28;19979;-80
2023/01/05 04:43:52;;;;;;;;;;;;;;;11.81;53.92;99452.84;5017176;28;19956;-81
2023/01/05 04:46:17;;;;;;;;;;;;;;;11.80;54.00;99457.25;5033770;28;20303;-84
2023/01/05 04:48:43;;;;;;;;;;;;;;;11.78;54.03;99459.13;5016213;28;20376;-80
2023/01/05 04:51:08;;;;;;;;;;;;;;;11.76;53.75;99453.16;5016767;28;19917;-86
2023/01/05 04:53:33;;;;;;;;;;;;;;;11.75;53.65;99454.94;5034179;28;19996;-79
2023/01/05 04:55:59;;;;;;;;;;;;;;;11.74;53.73;99452.44;5017350;28;19927;-85
2023/01/05 04:58:24;;;;;;;;;;;;;;;11.73;54.06;99448.13;5016740;28;19917;-82
2023/01/05 05:00:49;;;;;;;;;;;;;;;11.72;54.19;99444.69;5034393;28;19917;-82
2023/01/05 05:03:15;;;;;;;;;;;;;;;11.94;66.01;99448.47;5017048;28;20011;-79
2023/01/05 05:05:40;;;;;;;;;;;;;;;11.96;62.00;99446.56;5016742;28;19971;-84
2023/01/05 05:08:05;;;;;;;;;;;;;;;12.00;61.33;99445.41;5034158;28;19917;-85
2023/01/05 05:10:30;;;;;;;;;;;;;;;11.96;59.91;99445.75;5034360;28;19917;-84
2023/01/05 05:12:56;;;;;;;;;;;;;;;11.95;59.07;99444.88;5034841;28;20355;-82
2023/01/05 05:15:21;;;;;;;;;;;;;;;11.92;58.12;99447.72;5016615;28;19918;-79
2023/01/05 05:17:47;;;;;;;;;;;;;;;11.89;57.70;99451.38;5034683;28;19921;-82
2023/01/05 05:20:12;;;;;;;;;;;;;;;11.85;57.30;99455.13;5032656;28;19971;-82
2023/01/05 05:22:38;;;;;;;;;;;;;;;11.82;57.05;99450.13;5016245;28;20312;-80
2023/01/05 05:25:03;;;;;;;;;;;;;;;11.79;56.77;99459.97;5032087;28;20380;-79
2023/01/05 05:27:28;;;;;;;;;;;;;;;11.76;56.33;99458.38;5015707;28;20457;-79
2023/01/05 05:29:54;;;;;;;;;;;;;;;11.75;56.46;99462.78;5033900;28;19923;-78
2023/01/05 05:32:19;;;;;;;;;;;;;;;11.72;56.11;99444.69;5016539;28;19928;-79
2023/01/05 05:34:44;;;;;;;;;;;;;;;11.71;56.39;99450.03;5016298;28;19917;-79
2023/01/05 05:37:10;;;;;;;;;;;;;;;11.70;56.26;99449.22;5032216;28;20280;-79
2023/01/05 05:39:35;;;;;;;;;;;;;;;11.70;56.05;99450.97;5012591;28;19952;-78
2023/01/05 05:42:00;;;;;;;;;;;;;;;11.70;55.60;99446.59;5012637;28;19928;-79
2023/01/05 05:44:25;;;;;;;;;;;;;;;11.69;55.72;99444.91;5012778;28;19979;-79
2023/01/05 05:46:51;;;;;;;;;;;;;;;11.70;55.86;99441.38;5012782;28;19976;-78
2023/01/05 05:49:16;;;;;;;;;;;;;;;11.69;55.80;99439.69;5014104;28;19917;-78
2023/01/05 05:51:41;;;;;;;;;;;;;;;11.69;55.37;99434.44;5012613;28;20389;-78
2023/01/05 05:54:07;;;;;;;;;;;;;;;11.68;55.76;99432.75;5012298;28;19948;-77
2023/01/05 05:56:32;;;;;;;;;;;;;;;11.68;55.39;99430.16;5012426;28;19925;-78
2023/01/05 05:58:57;;;;;;;;;;;;;;;11.67;55.30;99425.88;5013091;28;19967;-79
2023/01/05 06:01:23;;;;;;;;;;;;;;;11.67;55.38;99417.19;5032486;28;19921;-79
2023/01/05 06:03:48;;;;;;;;;;;;;;;11.67;55.30;99418.03;5032222;28;19917;-78
2023/01/05 06:06:13;;;;;;;;;;;;;;;11.67;55.40;99415.41;5032198;28;19918;-78
2023/01/05 06:08:39;;;;;;;;;;;;;;;11.67;55.60;99418.03;5015654;28;20350;-79
2023/01/05 06:11:04;;;;;;;;;;;;;;;11.68;55.22;99419.69;5032178;28;20426;-79
2023/01/05 06:13:29;;;;;;;;;;;;;;;11.69;55.31;99425.78;5015820;28;20031;-79
2023/01/05 06:15:55;;;;;;;;;;;;;;;11.70;55.63;99425.66;5015528;28;19923;-79
2023/01/05 06:18:20;;;;;;;;;;;;;;;11.72;55.38;99425.56;5015515;28;19928;-79
2023/01/05 06:20:45;;;;;;;;;;;;;;;11.73;55.40;99422.84;5033052;28;19940;-80
2023/01/05 06:23:11;;;;;;;;;;;;;;;11.75;55.24;99414.88;5015687;28;19918;-78
2023/01/05 06:25:36;;;;;;;;;;;;;;;11.78;54.95;99417.28;5015558;28;19917;-79
2023/01/05 06:28:01;;;;;;;;;;;;;;;11.86;54.83;99409.72;5032184;28;20394;-79
2023/01/05 06:30:27;;;;;;;;;;;;;;;11.99;54.65;99414.97;5015440;28;20376;-80
2023/01/05 06:32:52;;;;;;;;;;;;;;;12.11;54.24;99415.84;5031878;28;19917;-78
2023/01/05 06:35:17;;;;;;;;;;;;;;;12.20;53.65;99420.41;5031957;28;20385;-78
2023/01/05 06:37:42;;;;;;;;;;;;;;;12.48;53.37;99415.81;5015422;28;19928;-79
2023/01/05 06:40:10;;;;;;;;;;;;;;;12.77;52.67;99405.78;5037308;28;19936;-80
2023/01/05 06:42:35;;;;;;;;;;;;;;;12.72;52.61;99404.47;5046441;28;19925;-80
2023/01/05 06:45:01;;;;;;;;;;;;;;;12.79;52.58;99396.03;5022957;28;19921;-79
2023/01/05 06:47:26;;;;;;;;;;;;;;;12.92;52.29;99397.72;5032430;28;20376;-81
2023/01/05 06:49:51;;;;;;;;;;;;;;;13.46;50.86;99397.09;5019155;28;19975;-79
2023/01/05 06:52:16;;;;;;;;;;;;;;;13.82;50.63;99394.31;5034026;28;19975;-79
2023/01/05 06:54:42;;;;;;;;;;;;;;;13.97;50.44;99394.91;5050828;28;19923;-81
2023/01/05 06:57:07;;;;;;;;;;;;;;;14.06;49.94;99395.00;5034381;28;20288;-79
2023/01/05 06:59:32;;;;;;;;;;;;;;;14.09;49.36;99391.31;5046832;28;19917;-85
2023/01/05 07:01:58;;;;;;;;;;;;;;;14.20;49.02;99387.78;5031932;28;20347;-91
2023/01/05 07:04:23;;;;;;;;;;;;;;;14.93;49.02;99382.72;5045138;28;19917;-95
2023/01/05 07:06:48;;;;;;;;;;;;;;;15.65;48.78;99380.97;5062691;28;19924;-91
2023/01/05 07:09:14;;;;;;;;;;;;;;;16.17;47.17;99381.66;5060832;28;19917;-92
2023/01/05 07:11:39;;;;;;;;;;;;;;;16.57;46.12;99380.72;5044947;28;19921;-90
2023/01/05 07:14:04;;;;;;;;;;;;;;;16.95;44.69;99386.06;5059965;28;19917;-89
2023/01/05 07:16:30;;;;;;;;;;;;;;;17.27;43.76;99379.63;5057909;28;20027;-92
2023/01/05 07:18:55;;;;;;;;;;;;;;;17.62;42.81;99380.72;5054567;28;19925;-73
2023/01/05 07:21:20;;;;;;;;;;;;;;;18.07;41.47;99375.50;5051955;28;19959;-72
2023/01/05 07:23:45;;;;;;;;;;;;;;;18.54;46.33;99373.59;5052433;28;19921;-76
2023/01/05 07:26:11;;;;;;;;;;;;;;;18.69;45.01;99369.41;5034559;28;20342;-77
2023/01/05 07:28:36;;;;;;;;;;;;;;;18.67;44.65;99366.09;5050948;28;19917;-79
2023/01/05 07:31:02;;;;;;;;;;;;;;;18.93;41.32;99367.97;5050828;28;19917;-79
2023/01/05 07:33:27;;;;;;;;;;;;;;;19.14;43.45;99363.13;5052458;28;19970;-75
2023/01/05 07:35:52;;;;;;;;;;;;;;;19.53;41.51;99361.81;5052130;28;19967;-73
2023/01/05 07:38:18;;;;;;;;;;;;;;;19.93;40.06;99351.56;5050194;28;19975;-72
2023/01/05 07:40:43;;;;;;;;;;;;;;;20.43;38.91;99347.97;5050912;28;19932;-73
2023/01/05 07:43:08;;;;;;;;;;;;;;;20.61;37.58;99345.94;5051368;28;19959;-74
2023/01/05 07:45:34;;;;;;;;;;;;;;;20.90;36.38;99349.91;5050858;28;20022;-73
2023/01/05 07:47:59;;;;;;;;;;;;;;;21.16;35.37;99335.59;5050965;28;19927;-73
2023/01/05 07:50:24;;;;;;;;;;;;;;;21.43;34.53;99336.19;5044207;28;19925;-73
2023/01/05 07:52:50;;;;;;;;;;;;;;;21.64;34.09;99333.75;5050864;28;20450;-73
2023/01/05 07:55:15;;;;;;;;;;;;;;;21.90;33.04;99329.97;5050757;28;19924;-73
2023/01/05 07:57:40;;;;;;;;;;;;;;;22.17;32.66;99331.28;5041229;28;19917;-72
2023/01/05 08:00:06;;;;;;;;;;;;;;;22.36;32.37;99337.97;5036026;28;19957;-74
2023/01/05 08:02:32;;;;;;;;;;;;;;;22.52;31.67;99333.53;5049979;28;19940;-73
2023/01/05 08:04:57;;;;;;;;;;;;;;;22.65;31.43;99331.06;5037038;28;20000;-74
2023/01/05 08:07:22;;;;;;;;;;;;;;;22.76;31.03;99321.81;5037391;28;19917;-73
2023/01/05 08:12:32;;;;;;;;;;;;;;;23.03;31.40;99328.34;5054726;28;19924;-75
2023/01/05 08:14:57;;;;;;;;;;;;;;;23.17;30.19;99309.94;5037099;28;19939;-74
2023/01/05 08:17:22;;;;;;;;;;;;;;;23.30;32.37;99305.59;5037543;28;19924;-74
2023/01/05 08:19:48;;;;;;;;;;;;;;;23.48;33.79;99310.53;5055089;28;19917;-71
2023/01/05 08:22:13;;;;;;;;;;;;;;;23.61;33.71;99317.88;5056141;28;19967;-70
2023/01/05 08:24:38;;;;;;;;;;;;;;;23.76;33.47;99307.16;5036862;28;19924;-76
2023/01/05 08:27:03;;;;;;;;;;;;;;;23.91;32.78;99303.63;5053938;28;19917;-75
2023/01/05 08:29:29;;;;;;;;;;;;;;;23.97;32.80;99294.88;5053857;28;19921;-75
2023/01/05 08:31:54;;;;;;;;;;;;;;;24.11;32.63;99287.84;5036885;28;20391;-78
2023/01/05 08:34:19;;;;;;;;;;;;;;;24.29;32.64;99280.22;5053497;28;19927;-81
2023/01/05 08:36:45;;;;;;;;;;;;;;;24.42;33.57;99278.66;5037237;28;20379;-82
2023/01/05 08:39:10;;;;;;;;;;;;;;;24.68;31.50;99278.84;5036534;28;19979;-81
2023/01/05 08:41:36;;;;;;;;;;;;;;;24.93;30.20;99271.19;5054293;28;20014;-81
2023/01/05 08:44:03;;;;;;;;;;;;;;;25.13;29.43;99265.16;5054266;28;19963;-79
2023/01/05 08:46:29;;;;;;;;;;;;;;;25.33;29.00;99262.56;5037532;28;19921;-79
2023/01/05 08:48:55;;;;;;;;;;;;;;;25.53;28.37;99262.66;5036682;28;20299;-78
2023/01/05 08:51:21;;;;;;;;;;;;;;;25.69;27.45;99261.44;5054894;28;19928;-76
2023/01/05 08:53:46;;;;;;;;;;;;;;;25.85;27.30;99254.06;5054816;28;19940;-75
2023/01/05 08:56:12;;;;;;;;;;;;;;;26.04;27.12;99242.59;5047316;28;19921;-74
2023/01/05 08:58:37;;;;;;;;;;;;;;;26.23;26.34;99238.25;5042146;28;20007;-76
2023/01/05 09:01:09;;;;;;;;;;;;;;;26.36;26.11;99238.28;5033380;28;19923;-76
2023/01/05 09:03:34;;;;;;;;;;;;;;;26.56;25.27;99241.94;5033275;28;19917;-74
2023/01/05 09:06:02;;;;;;;;;;;;;;;26.63;25.33;99226.69;5033289;28;20311;-76
2023/01/05 09:08:28;;;;;;;;;;;;;;;26.77;25.46;99227.50;5016589;28;20357;-74
2023/01/05 09:10:54;;;;;;;;;;;;;;;27.00;25.32;99224.34;5033405;28;19917;-77
2023/01/05 09:13:19;;;;;;;;;;;;;;;27.17;24.78;99220.13;5033297;28;20059;-76
2023/01/05 09:15:44;;;;;;;;;;;;;;;27.27;24.75;99219.69;5033420;28;20297;-73
2023/01/05 09:18:09;;;;;;;;;;;;;;;27.31;24.49;99209.38;5034624;28;19921;-74
2023/01/05 09:20:35;;;;;;;;;;;;;;;27.38;24.64;99199.44;5016409;28;19917;-74
2023/01/05 09:23:00;;;;;;;;;;;;;;;27.57;24.33;99203.84;5016499;28;19917;-78
2023/01/05 09:25:25;;;;;;;;;;;;;;;27.76;24.09;99191.34;5033314;28;19932;-77
2023/01/05 09:27:51;;;;;;;;;;;;;;;27.79;23.87;99185.53;5016351;28;19951;-77
2023/01/05 09:30:16;;;;;;;;;;;;;;;27.89;23.79;99185.03;5034420;28;19917;-75
2023/01/05 09:32:41;;;;;;;;;;;;;;;27.97;23.71;99184.81;5032915;28;20019;-76
2023/01/05 09:35:07;;;;;;;;;;;;;;;28.12;23.98;99178.28;5033075;28;19968;-76
2023/01/05 09:37:32;;;;;;;;;;;;;;;28.16;24.07;99171.41;5032835;28;19924;-75
2023/01/05 09:39:57;;;;;;;;;;;;;;;28.33;23.69;99153.69;5032453;28;20020;-77
2023/01/05 09:42:23;;;;;;;;;;;;;;;28.48;23.21;99144.44;5032774;28;19921;-76
2023/01/05 09:44:51;;;;;;;;;;;;;;;28.91;22.92;99156.16;5033784;28;20311;-76
2023/01/05 09:47:19;;;;;;;;;;;;;;;29.68;21.43;99148.25;5016120;28;19917;-78
2023/01/05 09:49:45;;;;;;;;;;;;;;;30.50;20.50;99135.84;5032546;28;20020;-77
2023/01/05 09:52:11;;;;;;;;;;;;;;;31.19;20.14;99135.84;5032995;28;19956;-78
2023/01/05 09:54:37;;;;;;;;;;;;;;;31.91;19.14;99128.97;5033988;28;19921;-79
2023/01/05 09:57:02;;;;;;;;;;;;;;;32.52;18.45;99109.25;5016029;28;19919;-82
2023/01/05 09:59:28;;;;;;;;;;;;;;;32.85;18.32;99101.28;5032697;28;19917;-82
2023/01/05 10:01:54;;;;;;;;;;;;;;;33.12;17.98;99085.84;5032372;28;19918;-80
2023/01/05 10:04:29;;;;;;;;;;;;;;;33.37;17.42;99084.47;5032222;28;19917;-83
2023/01/05 10:06:56;;;;;;;;;;;;;;;33.88;17.47;99076.72;5033642;28;19917;-81
2023/01/05 10:09:27;;;;;;;;;;;;;;;34.30;16.70;99071.50;5016025;28;19917;-82
2023/01/05 10:15:12;;;;;;;;;;;;;;;34.69;16.39;99058.34;5033204;28;20144;-83
2023/01/05 10:17:38;;;;;;;;;;;;;;;34.70;16.14;99040.19;5033434;28;19917;-84
2023/01/05 10:20:23;;;;;;;;;;;;;;;34.71;15.97;99037.22;5032300;28;20016;-83
2023/01/05 10:23:06;;;;;;;;;;;;;;;34.65;16.47;99024.75;5031816;28;20296;-83
2023/01/05 10:25:32;;;;;;;;;;;;;;;34.30;16.99;99012.75;5034041;28;19917;-84
2023/01/05 10:27:57;;;;;;;;;;;;;;;33.83;17.01;99009.00;5033147;28;20292;-83
2023/01/05 10:30:23;;;;;;;;;;;;;;;33.25;16.86;99010.78;5033573;28;19924;-82
2023/01/05 10:32:53;;;;;;;;;;;;;;;32.60;17.65;99000.72;5015424;28;19943;-82
2023/01/05 10:35:18;;;;;;;;;;;;;;;31.95;17.46;99002.41;5016961;28;20427;-84
2023/01/05 10:37:51;;;;;;;;;;;;;;;31.38;17.67;99014.28;5032820;28;19972;-82
2023/01/05 10:40:38;;;;;;;;;;;;;;;30.69;17.54;99006.38;5032437;28;20392;-83
2023/01/05 10:43:25;;;;;;;;;;;;;;;29.92;18.56;98998.41;5032723;28;19925;-84
2023/01/05 10:45:50;;;;;;;;;;;;;;;29.15;19.63;98988.56;5032862;28;19928;-83
2023/01/05 10:48:17;;;;;;;;;;;;;;;28.35;20.81;98992.41;5032972;28;19917;-81
2023/01/05 10:50:43;;;;;;;;;;;;;;;27.58;21.64;98996.38;5032425;28;19944;-82
2023/01/05 10:53:12;;;;;;;;;;;;;;;26.84;22.96;98995.31;5032669;28;19917;-88
2023/01/05 10:55:42;;;;;;;;;;;;;;;26.10;24.33;98992.97;5016796;28;19917;-83
2023/01/05 10:58:19;;;;;;;;;;;;;;;25.58;25.00;98982.19;5015300;28;19921;-81
2023/01/05 11:00:44;;;;;;;;;;;;;;;25.10;25.62;98988.59;5033270;28;19918;-82
2023/01/05 11:03:12;;;;;;;;;;;;;;;24.76;26.32;98978.91;5032240;28;19971;-82
2023/01/05 11:05:38;;;;;;;;;;;;;;;24.51;26.21;98971.44;5032743;28;20005;-84
2023/01/05 11:08:17;;;;;;;;;;;;;;;24.14;26.30;98962.91;5015295;28;19917;-82
2023/01/05 11:10:58;;;;;;;;;;;;;;;23.92;26.26;98954.19;5031690;28;20407;-82
2023/01/05 11:13:34;;;;;;;;;;;;;;;23.71;26.30;98944.44;5031995;28;19956;-82
2023/01/05 11:16:08;;;;;;;;;;;;;;;23.44;26.34;98943.47;5031727;28;20395;-81
2023/01/05 11:18:39;;;;;;;;;;;;;;;23.28;26.58;98942.75;5015337;28;19971;-82
2023/01/05 11:21:08;;;;;;;;;;;;;;;23.09;26.93;98941.59;5032447;28;19918;-80
2023/01/05 11:23:35;;;;;;;;;;;;;;;22.94;26.71;98933.66;5032155;28;19925;-83
2023/01/05 11:26:10;;;;;;;;;;;;;;;22.75;26.92;98934.31;5030893;28;19921;-83
2023/01/05 11:28:35;;;;;;;;;;;;;;;22.67;27.26;98932.59;5032012;28;19920;-83
2023/01/05 11:31:02;;;;;;;;;;;;;;;22.54;27.25;98930.63;5032103;28;20434;-80
2023/01/05 11:33:28;;;;;;;;;;;;;;;22.41;27.50;98922.53;5031250;28;19925;-80
2023/01/05 11:35:53;;;;;;;;;;;;;;;22.19;27.88;98919.00;5031311;28;19940;-80
2023/01/05 11:38:20;;;;;;;;;;;;;;;22.09;28.05;98913.97;5015384;28;20376;-80
2023/01/05 11:40:45;;;;;;;;;;;;;;;22.04;27.70;98909.22;5034932;28;19925;-82
2023/01/05 11:43:11;;;;;;;;;;;;;;;22.02;27.91;98905.09;5035064;28;19924;-82
2023/01/05 11:45:36;;;;;;;;;;;;;;;22.01;27.86;98906.09;5035046;28;19917;-80
2023/01/05 11:48:03;;;;;;;;;;;;;;;22.00;28.14;98904.47;5036275;28;19917;-79
2023/01/05 11:50:47;;;;;;;;;;;;;;;21.98;28.05;98902.00;5035431;28;20015;-84
2023/01/05 11:53:39;;;;;;;;;;;;;;;21.91;28.28;98897.59;5018705;28;20372;-84
2023/01/05 11:56:07;;;;;;;;;;;;;;;21.86;28.36;98900.81;5032241;28;20008;-85
2023/01/05 11:58:33;;;;;;;;;;;;;;;21.76;28.26;98897.63;5035089;28;19923;-83
2023/01/05 12:00:59;;;;;;;;;;;;;;;21.65;28.76;98885.66;5018432;28;19917;-84
2023/01/05 12:03:39;;;;;;;;;;;;;;;21.49;29.05;98886.66;5037038;28;19924;-83
2023/01/05 12:06:10;;;;;;;;;;;;;;;21.42;28.97;98888.38;5036595;28;20007;-83
2023/01/05 12:08:47;;;;;;;;;;;;;;;21.39;29.20;98878.94;5036156;28;19943;-85
2023/01/05 12:11:20;;;;;;;;;;;;;;;21.32;29.26;98870.06;5035670;28;20008;-84
2023/01/05 12:13:54;;;;;;;;;;;;;;;21.17;29.17;98866.56;5035520;28;19917;-84
2023/01/05 12:16:19;;;;;;;;;;;;;;;21.10;29.48;98869.13;5036562;28;20055;-84
2023/01/05 12:18:57;;;;;;;;;;;;;;;21.06;29.65;98874.00;5036136;28;19917;-84
2023/01/05 12:21:26;;;;;;;;;;;;;;;21.00;29.94;98876.53;5035454;28;19917;-83
2023/01/05 12:23:51;;;;;;;;;;;;;;;20.92;30.16;98872.97;5018482;28;19917;-86
2023/01/05 12:26:18;;;;;;;;;;;;;;;20.84;30.45;98872.19;5035245;28;19939;-84
2023/01/05 12:28:43;;;;;;;;;;;;;;;20.73;30.63;98861.03;5017670;28;20307;-86
2023/01/05 12:31:11;;;;;;;;;;;;;;;20.65;30.78;98858.44;5035871;28;19917;-83
2023/01/05 12:33:55;;;;;;;;;;;;;;;20.57;30.82;98855.81;5035359;28;19924;-82
2023/01/05 12:36:26;;;;;;;;;;;;;;;20.48;31.15;98848.94;5035278;28;19922;-83
2023/01/05 12:38:58;;;;;;;;;;;;;;;20.35;31.56;98847.72;5036839;28;20380;-83
2023/01/05 12:41:29;;;;;;;;;;;;;;;20.20;31.60;98852.13;5055222;28;20456;-84
2023/01/05 12:44:13;;;;;;;;;;;;;;;20.08;31.88;98835.81;5037266;28;19917;-82
2023/01/05 12:46:53;;;;;;;;;;;;;;;19.94;31.86;98845.34;5055342;28;19921;-83
2023/01/05 12:49:26;;;;;;;;;;;;;;;19.82;32.38;98846.75;5054830;28;19974;-83
2023/01/05 12:52:15;;;;;;;;;;;;;;;19.67;32.69;98850.09;5036774;28;20364;-83
2023/01/05 12:54:58;;;;;;;;;;;;;;;19.57;32.85;98849.47;4994024;28;19960;-83
2023/01/05 12:57:28;;;;;;;;;;;;;;;19.46;32.93;98852.50;4994089;28;20266;-82
2023/01/05 13:00:14;;;;;;;;;;;;;;;19.31;33.29;98849.75;4977183;28;20417;-84
2023/01/05 13:02:45;;;;;;;;;;;;;;;19.25;33.43;98856.53;4993076;28;19918;-82
2023/01/05 13:05:16;;;;;;;;;;;;;;;19.22;33.51;98856.88;4993468;28;19957;-85
2023/01/05 13:07:46;;;;;;;;;;;;;;;19.21;33.63;98851.75;4977599;28;19917;-87
2023/01/05 13:10:14;;;;;;;;;;;;;;;19.18;33.69;98858.19;4960981;28;20308;-85
2023/01/05 13:12:39;;;;;;;;;;;;;;;19.12;33.81;98853.59;4977621;28;19918;-83
2023/01/05 13:15:10;;;;;;;;;;;;;;;19.03;33.80;98858.06;4977274;28;20444;-87
2023/01/05 13:17:37;;;;;;;;;;;;;;;18.94;34.19;98853.78;4993503;28;19922;-84
2023/01/05 13:20:23;;;;;;;;;;;;;;;18.91;34.27;98862.06;4976514;28;20399;-83
2023/01/05 13:22:48;;;;;;;;;;;;;;;18.85;34.41;98860.06;4992343;28;19968;-82
2023/01/05 13:25:16;;;;;;;;;;;;;;;18.81;34.28;98864.84;4977035;28;19917;-82